sensor_id;sensor_type;location;lat;lon;timestamp;pressure;altitude;pressure_sealevel;temperature;humidity
5966;BME280;3009;43.224;27.976;2023-03-23T00:01:29;100554.53;;;5.98;100.00
5966;BME280;3009;43.224;27.976;2023-03-23T00:03:58;100541.47;;;6.02;100.00
5966;BME280;3009;43.224;27.976;2023-03-23T00:06:27;100540.91;;;6.05;100.00
5966;BME280;3009;43.224;27.976;2023-03-23T00:09:00;100539.84;;;6.06;100.00
5966;BME280;3009;43.224;27.976;2023-03-23T00:11:30;100536.09;;;6.12;100.00
5966;BME280;3009;43.224;27.976;2023-03-23T00:13:59;100538.25;;;6.10;100.00
5966;BME280;3009;43.224;27.976;2023-03-23T00:16:30;100537.97;;;6.07;100.00
5966;BME280;3009;43.224;27.976;2023-03-23T00:18:59;100538.81;;;6.02;100.00
5966;BME280;3009;43.224;27.976;2023-03-23T00:21:31;100538.81;;;6.02;100.00
5966;BME280;3009;43.224;27.976;2023-03-23T00:24:03;100538.28;;;6.00;100.00
5966;BME280;3009;43.224;27.976;2023-03-23T00:26:31;100527.88;;;6.03;100.00
5966;BME280;3009;43.224;27.976;2023-03-23T00:29:01;100529.75;;;6.03;100.00
5966;BME280;3009;43.224;27.976;2023-03-23T00:31:29;100537.78;;;5.98;100.00
5966;BME280;3009;43.224;27.976;2023-03-23T00:33:59;100525.25;;;5.98;100.00
5966;BME280;3009;43.224;27.976;2023-03-23T00:36:31;100534.28;;;6.02;100.00
5966;BME280;3009;43.224;27.976;2023-03-23T00:39:00;100534.25;;;6.08;100.00
5966;BME280;3009;43.224;27.976;2023-03-23T00:41:28;100536.13;;;6.02;100.00
5966;BME280;3009;43.224;27.976;2023-03-23T00:43:57;100530.25;;;6.10;100.00
5966;BME280;3009;43.224;27.976;2023-03-23T00:46:26;100528.16;;;6.02;100.00
5966;BME280;3009;43.224;27.976;2023-03-23T00:48:54;100528.69;;;6.04;100.00
5966;BME280;3009;43.224;27.976;2023-03-23T00:51:23;100530.28;;;6.05;100.00
5966;BME280;3009;43.224;27.976;2023-03-23T00:53:52;100524.66;;;6.07;100.00
5966;BME280;3009;43.224;27.976;2023-03-23T00:56:19;100529.22;;;6.06;100.00
5966;BME280;3009;43.224;27.976;2023-03-23T00:58:46;100524.66;;;6.07;100.00
5966;BME280;3009;43.224;27.976;2023-03-23T01:01:13;100525.50;;;6.02;100.00
5966;BME280;3009;43.224;27.976;2023-03-23T01:03:40;100520.44;;;6.06;100.00
5966;BME280;3009;43.224;27.976;2023-03-23T01:06:09;100520.44;;;6.06;100.00
5966;BME280;3009;43.224;27.976;2023-03-23T01:08:39;100518.28;;;6.08;100.00
5966;BME280;3009;43.224;27.976;2023-03-23T01:11:14;100518.53;;;6.11;100.00
5966;BME280;3009;43.224;27.976;2023-03-23T01:13:42;100512.13;;;6.12;100.00
5966;BME280;3009;43.224;27.976;2023-03-23T01:16:10;100516.94;;;6.10;100.00
5966;BME280;3009;43.224;27.976;2023-03-23T01:18:38;100513.19;;;6.11;100.00
5966;BME280;3009;43.224;27.976;2023-03-23T01:21:07;100514.81;;;6.12;100.00
5966;BME280;3009;43.224;27.976;2023-03-23T01:23:36;100519.63;;;6.10;100.00
5966;BME280;3009;43.224;27.976;2023-03-23T01:26:04;100517.75;;;6.11;100.00
5966;BME280;3009;43.224;27.976;2023-03-23T01:28:34;100522.00;;;6.07;100.00
5966;BME280;3009;43.224;27.976;2023-03-23T01:31:02;100518.56;;;6.06;100.00
5966;BME280;3009;43.224;27.976;2023-03-23T01:33:30;100519.06;;;6.08;100.00
5966;BME280;3009;43.224;27.976;2023-03-23T01:35:58;100518.59;;;6.01;100.00
5966;BME280;3009;43.224;27.976;2023-03-23T01:38:25;100517.22;;;6.09;100.00
5966;BME280;3009;43.224;27.976;2023-03-23T01:40:53;100516.97;;;6.05;100.00
5966;BME280;3009;43.224;27.976;2023-03-23T01:43:20;100524.44;;;6.03;100.00
5966;BME280;3009;43.224;27.976;2023-03-23T01:45:48;100524.47;;;5.98;100.00
5966;BME280;3009;43.224;27.976;2023-03-23T01:48:18;100521.25;;;6.01;100.00
5966;BME280;3009;43.224;27.976;2023-03-23T01:50:53;100520.16;;;6.02;100.00
5966;BME280;3009;43.224;27.976;2023-03-23T01:53:22;100522.88;;;5.97;100.00
5966;BME280;3009;43.224;27.976;2023-03-23T01:55:52;100521.81;;;5.98;100.00
5966;BME280;3009;43.224;27.976;2023-03-23T01:58:25;100523.38;;;6.04;100.00
5966;BME280;3009;43.224;27.976;2023-03-23T02:00:55;100519.94;;;5.98;100.00
5966;BME280;3009;43.224;27.976;2023-03-23T02:03:24;100517.53;;;5.92;100.00
5966;BME280;3009;43.224;27.976;2023-03-23T02:05:52;100523.38;;;5.99;100.00
5966;BME280;3009;43.224;27.976;2023-03-23T02:08:20;100519.09;;;6.03;100.00
5966;BME280;3009;43.224;27.976;2023-03-23T02:10:49;100519.09;;;6.03;100.00
5966;BME280;3009;43.224;27.976;2023-03-23T02:13:16;100526.81;;;6.05;100.00
5966;BME280;3009;43.224;27.976;2023-03-23T02:15:51;100514.84;;;6.02;100.00
5966;BME280;3009;43.224;27.976;2023-03-23T02:18:32;100525.50;;;6.02;100.00
5966;BME280;3009;43.224;27.976;2023-03-23T02:21:20;100527.06;;;6.08;100.00
5966;BME280;3009;43.224;27.976;2023-03-23T02:24:29;100529.16;;;6.11;100.00
5966;BME280;3009;43.224;27.976;2023-03-23T02:27:01;100521.47;;;6.10;100.00
5966;BME280;3009;43.224;27.976;2023-03-23T02:29:52;100528.44;;;6.06;100.00
5966;BME280;3009;43.224;27.976;2023-03-23T02:32:41;100527.56;;;6.20;100.00
5966;BME280;3009;43.224;27.976;2023-03-23T02:35:18;100530.25;;;6.10;100.00
5966;BME280;3009;43.224;27.976;2023-03-23T02:37:49;100530.28;;;6.05;100.00
5966;BME280;3009;43.224;27.976;2023-03-23T02:40:21;100530.00;;;6.07;100.00
5966;BME280;3009;43.224;27.976;2023-03-23T02:42:54;100527.59;;;6.10;100.00
5966;BME280;3009;43.224;27.976;2023-03-23T02:45:24;100525.41;;;6.17;100.00
5966;BME280;3009;43.224;27.976;2023-03-23T02:47:55;100531.81;;;6.16;100.00
5966;BME280;3009;43.224;27.976;2023-03-23T02:50:25;100534.50;;;6.11;100.00
5966;BME280;3009;43.224;27.976;2023-03-23T02:52:55;100530.00;;;6.12;100.00
5966;BME280;3009;43.224;27.976;2023-03-23T02:55:24;100540.13;;;6.05;100.00
5966;BME280;3009;43.224;27.976;2023-03-23T02:57:54;100529.72;;;6.08;100.00
5966;BME280;3009;43.224;27.976;2023-03-23T03:00:22;100540.38;;;6.08;100.00
5966;BME280;3009;43.224;27.976;2023-03-23T03:02:51;100537.16;;;6.11;100.00
5966;BME280;3009;43.224;27.976;2023-03-23T03:05:28;100540.91;;;6.10;100.00
5966;BME280;3009;43.224;27.976;2023-03-23T03:08:07;100533.19;;;6.09;100.00
5966;BME280;3009;43.224;27.976;2023-03-23T03:10:44;100536.88;;;6.13;100.00
5966;BME280;3009;43.224;27.976;2023-03-23T03:13:21;100544.59;;;6.14;100.00
5966;BME280;3009;43.224;27.976;2023-03-23T03:15:54;100546.75;;;6.12;100.00
5966;BME280;3009;43.224;27.976;2023-03-23T03:18:27;100539.56;;;6.13;100.00
5966;BME280;3009;43.224;27.976;2023-03-23T03:21:02;100540.38;;;6.08;100.00
5966;BME280;3009;43.224;27.976;2023-03-23T03:23:32;100536.09;;;6.12;100.00
5966;BME280;3009;43.224;27.976;2023-03-23T03:26:01;100544.59;;;6.14;100.00
5966;BME280;3009;43.224;27.976;2023-03-23T03:28:33;100539.81;;;6.16;100.00
5966;BME280;3009;43.224;27.976;2023-03-23T03:31:03;100540.03;;;6.25;100.00
5966;BME280;3009;43.224;27.976;2023-03-23T03:33:31;100545.91;;;6.22;100.00
5966;BME280;3009;43.224;27.976;2023-03-23T03:36:03;100538.75;;;6.12;100.00
5966;BME280;3009;43.224;27.976;2023-03-23T03:38:41;100542.44;;;6.21;100.00
5966;BME280;3009;43.224;27.976;2023-03-23T03:41:09;100541.41;;;6.12;100.00
5966;BME280;3009;43.224;27.976;2023-03-23T03:43:36;100547.53;;;6.13;100.00
5966;BME280;3009;43.224;27.976;2023-03-23T03:46:04;100539.28;;;6.14;100.00
5966;BME280;3009;43.224;27.976;2023-03-23T03:48:31;100551.84;;;6.09;100.00
5966;BME280;3009;43.224;27.976;2023-03-23T03:50:58;100543.03;;;6.13;100.00
5966;BME280;3009;43.224;27.976;2023-03-23T03:53:28;100546.19;;;6.15;100.00
5966;BME280;3009;43.224;27.976;2023-03-23T03:55:56;100553.41;;;6.10;100.00
5966;BME280;3009;43.224;27.976;2023-03-23T03:58:25;100549.13;;;6.14;100.00
5966;BME280;3009;43.224;27.976;2023-03-23T04:00:58;100553.88;;;6.27;100.00
5966;BME280;3009;43.224;27.976;2023-03-23T04:03:25;100556.31;;;6.18;100.00
5966;BME280;3009;43.224;27.976;2023-03-23T04:05:54;100557.59;;;6.26;100.00
5966;BME280;3009;43.224;27.976;2023-03-23T04:08:21;100552.03;;;6.23;100.00
5966;BME280;3009;43.224;27.976;2023-03-23T04:10:50;100549.56;;;6.36;100.00
5966;BME280;3009;43.224;27.976;2023-03-23T04:13:17;100558.09;;;6.33;100.00
5966;BME280;3009;43.224;27.976;2023-03-23T04:15:46;100557.84;;;6.30;100.00
5966;BME280;3009;43.224;27.976;2023-03-23T04:18:14;100557.03;;;6.34;100.00
5966;BME280;3009;43.224;27.976;2023-03-23T04:20:42;100554.97;;;6.21;100.00
5966;BME280;3009;43.224;27.976;2023-03-23T04:23:10;100555.25;;;6.19;100.00
5966;BME280;3009;43.224;27.976;2023-03-23T04:25:37;100556.34;;;6.13;100.00
5966;BME280;3009;43.224;27.976;2023-03-23T04:28:08;100560.53;;;6.30;100.00
5966;BME280;3009;43.224;27.976;2023-03-23T04:30:36;100558.31;;;6.37;100.00
5966;BME280;3009;43.224;27.976;2023-03-23T04:33:03;100562.91;;;6.26;100.00
5966;BME280;3009;43.224;27.976;2023-03-23T04:35:30;100569.03;;;6.32;100.00
5966;BME280;3009;43.224;27.976;2023-03-23T04:37:57;100563.97;;;6.30;100.00
5966;BME280;3009;43.224;27.976;2023-03-23T04:40:25;100565.31;;;6.28;100.00
5966;BME280;3009;43.224;27.976;2023-03-23T04:42:52;100559.44;;;6.31;100.00
5966;BME280;3009;43.224;27.976;2023-03-23T04:45:24;100569.84;;;6.27;100.00
5966;BME280;3009;43.224;27.976;2023-03-23T04:47:52;100578.09;;;6.26;100.00
5966;BME280;3009;43.224;27.976;2023-03-23T04:50:26;100572.75;;;6.31;100.00
5966;BME280;3009;43.224;27.976;2023-03-23T04:52:56;100571.69;;;6.32;100.00
5966;BME280;3009;43.224;27.976;2023-03-23T04:55:25;100573.00;;;6.34;100.00
5966;BME280;3009;43.224;27.976;2023-03-23T04:57:52;100579.34;;;6.38;100.00
5966;BME280;3009;43.224;27.976;2023-03-23T05:00:20;100576.19;;;6.36;100.00
5966;BME280;3009;43.224;27.976;2023-03-23T05:02:49;100579.59;;;6.47;100.00
5966;BME280;3009;43.224;27.976;2023-03-23T05:05:18;100585.41;;;6.54;100.00
5966;BME280;3009;43.224;27.976;2023-03-23T05:07:46;100582.69;;;6.65;100.00
5966;BME280;3009;43.224;27.976;2023-03-23T05:10:14;100590.16;;;6.63;100.00
5966;BME280;3009;43.224;27.976;2023-03-23T05:12:42;100594.19;;;6.55;100.00
5966;BME280;3009;43.224;27.976;2023-03-23T05:15:12;100600.84;;;6.57;100.00
5966;BME280;3009;43.224;27.976;2023-03-23T05:17:40;100594.47;;;6.59;100.00
5966;BME280;3009;43.224;27.976;2023-03-23T05:20:12;100599.50;;;6.60;100.00
5966;BME280;3009;43.224;27.976;2023-03-23T05:22:40;100598.69;;;6.60;100.00
5966;BME280;3009;43.224;27.976;2023-03-23T05:25:08;100596.53;;;6.67;100.00
5966;BME280;3009;43.224;27.976;2023-03-23T05:27:36;100603.19;;;6.69;100.00
5966;BME280;3009;43.224;27.976;2023-03-23T05:30:04;100601.78;;;6.77;100.00
5966;BME280;3009;43.224;27.976;2023-03-23T05:32:32;100605.47;;;6.86;100.00
5966;BME280;3009;43.224;27.976;2023-03-23T05:35:00;100597.41;;;6.97;100.00
5966;BME280;3009;43.224;27.976;2023-03-23T05:37:30;100607.50;;;7.00;100.00
5966;BME280;3009;43.224;27.976;2023-03-23T05:39:58;100602.91;;;7.10;100.00
5966;BME280;3009;43.224;27.976;2023-03-23T05:42:31;100604.50;;;7.12;100.00
5966;BME280;3009;43.224;27.976;2023-03-23T05:45:00;100607.72;;;7.08;100.00
5966;BME280;3009;43.224;27.976;2023-03-23T05:47:27;100602.31;;;7.19;100.00
5966;BME280;3009;43.224;27.976;2023-03-23T05:49:56;100611.59;;;7.21;100.00
5966;BME280;3009;43.224;27.976;2023-03-23T05:52:24;100607.59;;;7.24;100.00
5966;BME280;3009;43.224;27.976;2023-03-23T05:54:53;100608.72;;;7.18;100.00
5966;BME280;3009;43.224;27.976;2023-03-23T05:57:20;100611.22;;;7.38;100.00
5966;BME280;3009;43.224;27.976;2023-03-23T05:59:48;100612.97;;;7.48;100.00
5966;BME280;3009;43.224;27.976;2023-03-23T06:02:15;100610.19;;;7.34;100.00
5966;BME280;3009;43.224;27.976;2023-03-23T06:04:43;100612.28;;;7.37;100.00
5966;BME280;3009;43.224;27.976;2023-03-23T06:07:10;100616.50;;;7.43;100.00
5966;BME280;3009;43.224;27.976;2023-03-23T06:09:40;100616.84;;;7.37;100.00
5966;BME280;3009;43.224;27.976;2023-03-23T06:12:09;100627.81;;;7.30;100.00
5966;BME280;3009;43.224;27.976;2023-03-23T06:14:37;100624.22;;;7.45;100.00
5966;BME280;3009;43.224;27.976;2023-03-23T06:17:04;100622.59;;;7.49;100.00
5966;BME280;3009;43.224;27.976;2023-03-23T06:19:32;100629.22;;;7.52;100.00
5966;BME280;3009;43.224;27.976;2023-03-23T06:21:59;100634.81;;;7.55;100.00
5966;BME280;3009;43.224;27.976;2023-03-23T06:24:27;100634.75;;;7.60;100.00
5966;BME280;3009;43.224;27.976;2023-03-23T06:26:54;100635.31;;;7.57;100.00
5966;BME280;3009;43.224;27.976;2023-03-23T06:29:23;100640.22;;;7.45;100.00
5966;BME280;3009;43.224;27.976;2023-03-23T06:31:52;100638.69;;;7.39;100.00
5966;BME280;3009;43.224;27.976;2023-03-23T06:34:22;100643.78;;;7.35;100.00
5966;BME280;3009;43.224;27.976;2023-03-23T06:36:49;100639.91;;;7.17;100.00
5966;BME280;3009;43.224;27.976;2023-03-23T06:39:16;100654.03;;;7.18;100.00
5966;BME280;3009;43.224;27.976;2023-03-23T06:41:43;100654.31;;;7.16;100.00
5966;BME280;3009;43.224;27.976;2023-03-23T06:44:11;100660.94;;;7.24;100.00
5966;BME280;3009;43.224;27.976;2023-03-23T06:46:40;100657.44;;;7.28;100.00
5966;BME280;3009;43.224;27.976;2023-03-23T06:49:08;100664.66;;;7.28;100.00
5966;BME280;3009;43.224;27.976;2023-03-23T06:51:36;100663.47;;;7.39;100.00
5966;BME280;3009;43.224;27.976;2023-03-23T06:54:04;100665.00;;;7.51;100.00
5966;BME280;3009;43.224;27.976;2023-03-23T06:56:31;100663.69;;;7.48;100.00
5966;BME280;3009;43.224;27.976;2023-03-23T06:58:58;100667.75;;;7.40;100.00
5966;BME280;3009;43.224;27.976;2023-03-23T07:01:26;100665.00;;;7.51;100.00
5966;BME280;3009;43.224;27.976;2023-03-23T07:03:56;100665.75;;;7.56;100.00
5966;BME280;3009;43.224;27.976;2023-03-23T07:06:24;100668.28;;;7.72;100.00
5966;BME280;3009;43.224;27.976;2023-03-23T07:08:52;100666.78;;;7.60;100.00
5966;BME280;3009;43.224;27.976;2023-03-23T07:11:19;100669.56;;;7.74;100.00
5966;BME280;3009;43.224;27.976;2023-03-23T07:13:46;100663.81;;;7.91;100.00
5966;BME280;3009;43.224;27.976;2023-03-23T07:16:15;100667.66;;;7.80;100.00
5966;BME280;3009;43.224;27.976;2023-03-23T07:18:43;100674.94;;;7.98;100.00
5966;BME280;3009;43.224;27.976;2023-03-23T07:21:12;100669.31;;;8.00;100.00
5966;BME280;3009;43.224;27.976;2023-03-23T07:23:39;100680.19;;;8.09;100.00
5966;BME280;3009;43.224;27.976;2023-03-23T07:26:07;100667.94;;;8.32;100.00
5966;BME280;3009;43.224;27.976;2023-03-23T07:28:34;100669.75;;;8.37;100.00
5966;BME280;3009;43.224;27.976;2023-03-23T07:31:02;100670.19;;;8.44;100.00
5966;BME280;3009;43.224;27.976;2023-03-23T07:33:29;100673.81;;;8.77;100.00
5966;BME280;3009;43.224;27.976;2023-03-23T07:35:58;100675.19;;;8.75;100.00
5966;BME280;3009;43.224;27.976;2023-03-23T07:38:27;100671.84;;;8.83;100.00
5966;BME280;3009;43.224;27.976;2023-03-23T07:40:55;100669.75;;;8.80;100.00
5966;BME280;3009;43.224;27.976;2023-03-23T07:43:23;100662.97;;;8.68;100.00
5966;BME280;3009;43.224;27.976;2023-03-23T07:45:51;100665.06;;;9.10;100.00
5966;BME280;3009;43.224;27.976;2023-03-23T07:48:19;100667.13;;;9.32;100.00
5966;BME280;3009;43.224;27.976;2023-03-23T07:50:46;100672.06;;;9.25;100.00
5966;BME280;3009;43.224;27.976;2023-03-23T07:53:13;100675.25;;;9.08;100.00
5966;BME280;3009;43.224;27.976;2023-03-23T07:55:42;100678.03;;;9.68;100.00
5966;BME280;3009;43.224;27.976;2023-03-23T07:58:09;100673.44;;;9.55;100.00
5966;BME280;3009;43.224;27.976;2023-03-23T08:00:37;100674.28;;;9.69;100.00
5966;BME280;3009;43.224;27.976;2023-03-23T08:03:06;100690.19;;;9.47;100.00
5966;BME280;3009;43.224;27.976;2023-03-23T08:05:33;100687.53;;;9.28;100.00
5966;BME280;3009;43.224;27.976;2023-03-23T08:08:01;100688.28;;;8.95;100.00
5966;BME280;3009;43.224;27.976;2023-03-23T08:10:28;100683.59;;;8.39;100.00
5966;BME280;3009;43.224;27.976;2023-03-23T08:12:57;100690.47;;;8.50;100.00
5966;BME280;3009;43.224;27.976;2023-03-23T08:15:25;100688.38;;;8.42;100.00
5966;BME280;3009;43.224;27.976;2023-03-23T08:17:52;100684.53;;;8.29;100.00
5966;BME280;3009;43.224;27.976;2023-03-23T08:20:21;100684.19;;;8.36;100.00
5966;BME280;3009;43.224;27.976;2023-03-23T08:22:54;100692.41;;;8.15;100.00
5966;BME280;3009;43.224;27.976;2023-03-23T08:25:23;100693.03;;;8.07;100.00
5966;BME280;3009;43.224;27.976;2023-03-23T08:27:51;100696.03;;;8.00;100.00
5966;BME280;3009;43.224;27.976;2023-03-23T08:30:21;100697.59;;;8.06;100.00
5966;BME280;3009;43.224;27.976;2023-03-23T08:32:50;100692.53;;;8.05;100.00
5966;BME280;3009;43.224;27.976;2023-03-23T08:35:18;100694.03;;;7.87;100.00
5966;BME280;3009;43.224;27.976;2023-03-23T08:37:46;100697.72;;;7.91;100.00
5966;BME280;3009;43.224;27.976;2023-03-23T08:40:18;100694.22;;;8.20;100.00
5966;BME280;3009;43.224;27.976;2023-03-23T08:42:47;100705.19;;;8.66;100.00
5966;BME280;3009;43.224;27.976;2023-03-23T08:45:17;100699.69;;;8.82;100.00
5966;BME280;3009;43.224;27.976;2023-03-23T08:47:48;100703.28;;;9.10;100.00
5966;BME280;3009;43.224;27.976;2023-03-23T08:50:20;100699.72;;;8.77;100.00
5966;BME280;3009;43.224;27.976;2023-03-23T08:52:48;100698.75;;;8.73;100.00
5966;BME280;3009;43.224;27.976;2023-03-23T08:55:16;100699.06;;;8.66;100.00
5966;BME280;3009;43.224;27.976;2023-03-23T08:57:44;100708.44;;;8.63;100.00
5966;BME280;3009;43.224;27.976;2023-03-23T09:00:14;100700.50;;;8.58;100.00
5966;BME280;3009;43.224;27.976;2023-03-23T09:02:44;100703.53;;;8.51;100.00
5966;BME280;3009;43.224;27.976;2023-03-23T09:05:15;100705.34;;;8.56;100.00
5966;BME280;3009;43.224;27.976;2023-03-23T09:07:44;100704.50;;;8.61;100.00
5966;BME280;3009;43.224;27.976;2023-03-23T09:10:12;100704.31;;;8.95;100.00
5966;BME280;3009;43.224;27.976;2023-03-23T09:12:40;100693.97;;;9.08;100.00
5966;BME280;3009;43.224;27.976;2023-03-23T09:15:09;100707.72;;;9.20;100.00
5966;BME280;3009;43.224;27.976;2023-03-23T09:17:39;100698.44;;;9.64;100.00
5966;BME280;3009;43.224;27.976;2023-03-23T09:20:09;100694.97;;;9.97;100.00
5966;BME280;3009;43.224;27.976;2023-03-23T09:22:39;100693.59;;;10.27;100.00
5966;BME280;3009;43.224;27.976;2023-03-23T09:25:08;100683.72;;;9.94;100.00
5966;BME280;3009;43.224;27.976;2023-03-23T09:27:36;100684.91;;;9.88;100.00
5966;BME280;3009;43.224;27.976;2023-03-23T09:30:06;100679.78;;;9.92;100.00
5966;BME280;3009;43.224;27.976;2023-03-23T09:32:33;100687.75;;;9.64;100.00
5966;BME280;3009;43.224;27.976;2023-03-23T09:35:01;100685.75;;;9.56;100.00
5966;BME280;3009;43.224;27.976;2023-03-23T09:37:29;100696.31;;;9.80;100.00
5966;BME280;3009;43.224;27.976;2023-03-23T09:39:58;100694.66;;;9.98;100.00
5966;BME280;3009;43.224;27.976;2023-03-23T09:42:36;100692.28;;;10.10;100.00
5966;BME280;3009;43.224;27.976;2023-03-23T09:45:15;100687.00;;;10.05;100.00
5966;BME280;3009;43.224;27.976;2023-03-23T09:48:00;100693.69;;;10.22;100.00
5966;BME280;3009;43.224;27.976;2023-03-23T09:50:34;100689.22;;;10.31;100.00
5966;BME280;3009;43.224;27.976;2023-03-23T09:53:09;100692.69;;;10.32;100.00
5966;BME280;3009;43.224;27.976;2023-03-23T09:55:38;100684.50;;;10.42;100.00
5966;BME280;3009;43.224;27.976;2023-03-23T09:58:12;100689.81;;;10.28;100.00
5966;BME280;3009;43.224;27.976;2023-03-23T10:00:46;100683.88;;;9.70;100.00
5966;BME280;3009;43.224;27.976;2023-03-23T10:03:15;100688.66;;;9.73;100.00
5966;BME280;3009;43.224;27.976;2023-03-23T10:05:45;100687.22;;;9.95;100.00
5966;BME280;3009;43.224;27.976;2023-03-23T10:08:15;100683.94;;;10.26;100.00
5966;BME280;3009;43.224;27.976;2023-03-23T10:10:54;100677.34;;;10.51;100.00
5966;BME280;3009;43.224;27.976;2023-03-23T10:13:34;100670.13;;;10.74;100.00
5966;BME280;3009;43.224;27.976;2023-03-23T10:16:07;100666.09;;;10.63;100.00
5966;BME280;3009;43.224;27.976;2023-03-23T10:18:40;100663.53;;;11.17;100.00
5966;BME280;3009;43.224;27.976;2023-03-23T10:21:12;100668.81;;;11.76;100.00
5966;BME280;3009;43.224;27.976;2023-03-23T10:23:52;100668.06;;;11.84;100.00
5966;BME280;3009;43.224;27.976;2023-03-23T10:26:41;100666.00;;;11.81;100.00
5966;BME280;3009;43.224;27.976;2023-03-23T10:29:16;100662.34;;;11.46;100.00
5966;BME280;3009;43.224;27.976;2023-03-23T10:31:47;100667.75;;;11.09;100.00
5966;BME280;3009;43.224;27.976;2023-03-23T10:34:20;100676.59;;;10.73;100.00
5966;BME280;3009;43.224;27.976;2023-03-23T10:36:56;100665.31;;;11.22;100.00
5966;BME280;3009;43.224;27.976;2023-03-23T10:39:29;100665.72;;;10.92;100.00
5966;BME280;3009;43.224;27.976;2023-03-23T10:42:01;100671.59;;;10.80;100.00
5966;BME280;3009;43.224;27.976;2023-03-23T10:44:33;100672.22;;;10.77;100.00
5966;BME280;3009;43.224;27.976;2023-03-23T10:47:02;100663.41;;;10.63;100.00
5966;BME280;3009;43.224;27.976;2023-03-23T10:49:36;100664.44;;;10.39;100.00
5966;BME280;3009;43.224;27.976;2023-03-23T10:52:25;100664.09;;;10.55;100.00
5966;BME280;3009;43.224;27.976;2023-03-23T10:54:57;100657.97;;;10.40;100.00
5966;BME280;3009;43.224;27.976;2023-03-23T10:57:28;100657.47;;;10.38;100.00
5966;BME280;3009;43.224;27.976;2023-03-23T11:00:01;100662.53;;;10.54;100.00
5966;BME280;3009;43.224;27.976;2023-03-23T11:02:35;100651.97;;;10.71;100.00
5966;BME280;3009;43.224;27.976;2023-03-23T11:05:07;100649.66;;;10.78;100.00
5966;BME280;3009;43.224;27.976;2023-03-23T11:07:38;100653.50;;;10.86;100.00
5966;BME280;3009;43.224;27.976;2023-03-23T11:10:16;100646.94;;;10.56;100.00
5966;BME280;3009;43.224;27.976;2023-03-23T11:12:45;100648.75;;;10.46;100.00
5966;BME280;3009;43.224;27.976;2023-03-23T11:15:28;100647.44;;;10.44;100.00
5966;BME280;3009;43.224;27.976;2023-03-23T11:17:58;100640.69;;;10.19;100.00
5966;BME280;3009;43.224;27.976;2023-03-23T11:20:27;100636.22;;;10.00;100.00
5966;BME280;3009;43.224;27.976;2023-03-23T11:22:56;100635.72;;;9.98;100.00
5966;BME280;3009;43.224;27.976;2023-03-23T11:25:24;100640.38;;;10.20;100.00
5966;BME280;3009;43.224;27.976;2023-03-23T11:27:53;100642.50;;;10.37;100.00
5966;BME280;3009;43.224;27.976;2023-03-23T11:30:24;100642.28;;;10.34;100.00
5966;BME280;3009;43.224;27.976;2023-03-23T11:32:54;100642.09;;;10.44;100.00
5966;BME280;3009;43.224;27.976;2023-03-23T11:35:26;100642.16;;;10.25;100.00
5966;BME280;3009;43.224;27.976;2023-03-23T11:37:55;100640.50;;;10.43;100.00
5966;BME280;3009;43.224;27.976;2023-03-23T11:40:25;100633.84;;;10.40;100.00
5966;BME280;3009;43.224;27.976;2023-03-23T11:42:59;100638.56;;;10.29;100.00
5966;BME280;3009;43.224;27.976;2023-03-23T11:45:33;100639.69;;;10.42;100.00
5966;BME280;3009;43.224;27.976;2023-03-23T11:48:18;100642.94;;;10.67;100.00
5966;BME280;3009;43.224;27.976;2023-03-23T11:50:51;100635.88;;;10.71;100.00
5966;BME280;3009;43.224;27.976;2023-03-23T11:53:26;100635.41;;;10.92;100.00
5966;BME280;3009;43.224;27.976;2023-03-23T11:56:04;100630.69;;;11.11;100.00
5966;BME280;3009;43.224;27.976;2023-03-23T11:58:35;100631.22;;;10.99;100.00
5966;BME280;3009;43.224;27.976;2023-03-23T12:01:05;100631.38;;;11.26;100.00
5966;BME280;3009;43.224;27.976;2023-03-23T12:03:49;100621.41;;;11.17;100.00
5966;BME280;3009;43.224;27.976;2023-03-23T12:06:25;100618.50;;;10.91;100.00
5966;BME280;3009;43.224;27.976;2023-03-23T12:09:05;100616.09;;;11.04;100.00
5966;BME280;3009;43.224;27.976;2023-03-23T12:11:44;100613.97;;;10.92;100.00
5966;BME280;3009;43.224;27.976;2023-03-23T12:14:21;100619.38;;;10.78;100.00
5966;BME280;3009;43.224;27.976;2023-03-23T12:17:03;100625.09;;;10.07;100.00
5966;BME280;3009;43.224;27.976;2023-03-23T12:19:41;100619.47;;;10.36;100.00
5966;BME280;3009;43.224;27.976;2023-03-23T12:22:20;100624.41;;;10.29;100.00
5966;BME280;3009;43.224;27.976;2023-03-23T12:24:59;100620.41;;;10.26;100.00
5966;BME280;3009;43.224;27.976;2023-03-23T12:27:35;100618.88;;;10.11;100.00
5966;BME280;3009;43.224;27.976;2023-03-23T12:30:18;100628.66;;;9.88;100.00
5966;BME280;3009;43.224;27.976;2023-03-23T12:32:58;100626.94;;;9.51;100.00
5966;BME280;3009;43.224;27.976;2023-03-23T12:35:40;100620.25;;;9.34;100.00
5966;BME280;3009;43.224;27.976;2023-03-23T12:38:29;100622.91;;;9.34;100.00
5966;BME280;3009;43.224;27.976;2023-03-23T12:41:12;100619.09;;;9.40;100.00
5966;BME280;3009;43.224;27.976;2023-03-23T12:43:48;100617.78;;;9.05;100.00
5966;BME280;3009;43.224;27.976;2023-03-23T12:46:46;100620.53;;;9.00;100.00
5966;BME280;3009;43.224;27.976;2023-03-23T12:49:20;100622.25;;;8.91;100.00
5966;BME280;3009;43.224;27.976;2023-03-23T12:51:53;100624.28;;;8.80;100.00
5966;BME280;3009;43.224;27.976;2023-03-23T12:54:27;100622.16;;;8.82;100.00
5966;BME280;3009;43.224;27.976;2023-03-23T12:57:01;100621.28;;;8.86;100.00
5966;BME280;3009;43.224;27.976;2023-03-23T12:59:34;100612.09;;;8.93;100.00
5966;BME280;3009;43.224;27.976;2023-03-23T13:02:14;100609.91;;;8.95;100.00
5966;BME280;3009;43.224;27.976;2023-03-23T13:04:46;100609.56;;;9.01;100.00
5966;BME280;3009;43.224;27.976;2023-03-23T13:07:18;100608.28;;;9.13;100.00
5966;BME280;3009;43.224;27.976;2023-03-23T13:09:53;100598.81;;;9.20;100.00
5966;BME280;3009;43.224;27.976;2023-03-23T13:12:22;100603.03;;;9.08;100.00
5966;BME280;3009;43.224;27.976;2023-03-23T13:14:59;100593.88;;;8.95;100.00
5966;BME280;3009;43.224;27.976;2023-03-23T13:17:37;100595.81;;;8.89;100.00